sensor_id;sensor_type;location;lat;lon;timestamp;pressure;altitude;pressure_sealevel;temperature;humidity
23281;BME280;11809;56.390;-3.266;2023-03-14T00:01:15;98781.09;;;12.76;48.83
23281;BME280;11809;56.390;-3.266;2023-03-14T00:03:42;98773.44;;;12.73;48.83
23281;BME280;11809;56.390;-3.266;2023-03-14T00:06:10;98785.16;;;12.69;48.67
23281;BME280;11809;56.390;-3.266;2023-03-14T00:08:37;98792.47;;;12.66;48.89
23281;BME280;11809;56.390;-3.266;2023-03-14T00:11:40;98797.84;;;12.64;48.71
23281;BME280;11809;56.390;-3.266;2023-03-14T00:13:59;98798.22;;;12.60;48.98
23281;BME280;11809;56.390;-3.266;2023-03-14T00:16:26;98796.78;;;12.56;48.96
23281;BME280;11809;56.390;-3.266;2023-03-14T00:18:53;98810.91;;;12.55;48.83
23281;BME280;11809;56.390;-3.266;2023-03-14T00:21:20;98811.16;;;12.52;48.72
23281;BME280;11809;56.390;-3.266;2023-03-14T00:23:47;98823.72;;;12.48;48.69
23281;BME280;11809;56.390;-3.266;2023-03-14T00:26:18;98827.41;;;12.46;48.72
23281;BME280;11809;56.390;-3.266;2023-03-14T00:28:46;98824.06;;;12.44;48.89
23281;BME280;11809;56.390;-3.266;2023-03-14T00:31:15;98825.16;;;12.41;49.04
23281;BME280;11809;56.390;-3.266;2023-03-14T00:33:43;98824.53;;;12.38;48.74
23281;BME280;11809;56.390;-3.266;2023-03-14T00:36:13;98838.78;;;12.35;48.85
23281;BME280;11809;56.390;-3.266;2023-03-14T00:38:41;98845.00;;;12.34;49.23
23281;BME280;11809;56.390;-3.266;2023-03-14T00:41:14;98857.44;;;12.32;48.93
23281;BME280;11809;56.390;-3.266;2023-03-14T00:43:42;98875.88;;;12.32;48.77
23281;BME280;11809;56.390;-3.266;2023-03-14T00:46:09;98876.00;;;12.31;49.13
23281;BME280;11809;56.390;-3.266;2023-03-14T00:48:36;98887.38;;;12.31;49.02
23281;BME280;11809;56.390;-3.266;2023-03-14T00:51:07;98876.00;;;12.31;49.11
23281;BME280;11809;56.390;-3.266;2023-03-14T00:53:35;98890.97;;;12.30;49.23
23281;BME280;11809;56.390;-3.266;2023-03-14T00:56:08;98900.06;;;12.26;48.93
23281;BME280;11809;56.390;-3.266;2023-03-14T00:58:35;98893.31;;;12.22;49.38
23281;BME280;11809;56.390;-3.266;2023-03-14T01:01:11;98897.03;;;12.20;49.13
23281;BME280;11809;56.390;-3.266;2023-03-14T01:03:39;98894.63;;;12.16;49.10
23281;BME280;11809;56.390;-3.266;2023-03-14T01:06:14;98897.38;;;12.15;49.38
23281;BME280;11809;56.390;-3.266;2023-03-14T01:08:42;98906.00;;;12.17;49.37
23281;BME280;11809;56.390;-3.266;2023-03-14T01:11:14;98911.28;;;12.17;49.55
23281;BME280;11809;56.390;-3.266;2023-03-14T01:13:42;98920.84;;;12.18;49.79
23281;BME280;11809;56.390;-3.266;2023-03-14T01:16:11;98932.34;;;12.17;49.92
23281;BME280;11809;56.390;-3.266;2023-03-14T01:18:40;98941.94;;;12.18;50.11
23281;BME280;11809;56.390;-3.266;2023-03-14T01:23:40;98956.03;;;12.17;50.01
23281;BME280;11809;56.390;-3.266;2023-03-14T01:26:12;98960.47;;;12.16;50.51
23281;BME280;11809;56.390;-3.266;2023-03-14T01:28:39;98963.09;;;12.16;50.10
23281;BME280;11809;56.390;-3.266;2023-03-14T01:31:09;98971.13;;;12.15;50.30
23281;BME280;11809;56.390;-3.266;2023-03-14T01:33:37;98977.22;;;12.15;50.35
23281;BME280;11809;56.390;-3.266;2023-03-14T01:36:04;98979.00;;;12.15;50.59
23281;BME280;11809;56.390;-3.266;2023-03-14T01:38:32;98980.72;;;12.16;50.23
23281;BME280;11809;56.390;-3.266;2023-03-14T01:41:01;98986.06;;;12.14;50.62
23281;BME280;11809;56.390;-3.266;2023-03-14T01:43:29;98988.59;;;12.16;50.55
23281;BME280;11809;56.390;-3.266;2023-03-14T01:48:36;98988.59;;;12.16;50.81
23281;BME280;11809;56.390;-3.266;2023-03-14T01:51:07;98997.44;;;12.15;50.93
23281;BME280;11809;56.390;-3.266;2023-03-14T01:53:35;98994.59;;;12.18;50.86
23281;BME280;11809;56.390;-3.266;2023-03-14T01:56:03;98997.31;;;12.16;50.84
23281;BME280;11809;56.390;-3.266;2023-03-14T01:58:31;99000.81;;;12.17;51.00
23281;BME280;11809;56.390;-3.266;2023-03-14T02:01:01;98999.88;;;12.18;50.88
23281;BME280;11809;56.390;-3.266;2023-03-14T02:03:30;99012.19;;;12.18;50.80
23281;BME280;11809;56.390;-3.266;2023-03-14T02:06:05;99013.88;;;12.19;50.86
23281;BME280;11809;56.390;-3.266;2023-03-14T02:08:35;99013.88;;;12.19;50.70
23281;BME280;11809;56.390;-3.266;2023-03-14T02:11:04;99011.13;;;12.20;50.61
23281;BME280;11809;56.390;-3.266;2023-03-14T02:13:31;99021.66;;;12.20;50.76
23281;BME280;11809;56.390;-3.266;2023-03-14T02:15:58;99023.34;;;12.21;51.05
23281;BME280;11809;56.390;-3.266;2023-03-14T02:18:25;99033.88;;;12.21;51.00
23281;BME280;11809;56.390;-3.266;2023-03-14T02:21:05;99042.50;;;12.23;50.85
23281;BME280;11809;56.390;-3.266;2023-03-14T02:23:37;99054.72;;;12.24;50.96
23281;BME280;11809;56.390;-3.266;2023-03-14T02:28:52;99058.94;;;12.27;50.94
23281;BME280;11809;56.390;-3.266;2023-03-14T02:31:20;99065.03;;;12.27;50.71
23281;BME280;11809;56.390;-3.266;2023-03-14T02:33:48;99070.28;;;12.27;50.75
23281;BME280;11809;56.390;-3.266;2023-03-14T02:36:15;99082.53;;;12.28;50.86
23281;BME280;11809;56.390;-3.266;2023-03-14T02:38:46;99078.09;;;12.29;50.64
23281;BME280;11809;56.390;-3.266;2023-03-14T02:41:14;99086.72;;;12.31;50.68
23281;BME280;11809;56.390;-3.266;2023-03-14T02:43:42;99087.56;;;12.31;50.56
23281;BME280;11809;56.390;-3.266;2023-03-14T02:46:13;99089.22;;;12.32;50.91
23281;BME280;11809;56.390;-3.266;2023-03-14T02:48:46;99084.81;;;12.33;50.87
23281;BME280;11809;56.390;-3.266;2023-03-14T02:51:15;99084.81;;;12.33;50.62
23281;BME280;11809;56.390;-3.266;2023-03-14T02:53:42;99087.34;;;12.34;50.84
23281;BME280;11809;56.390;-3.266;2023-03-14T02:56:09;99089.88;;;12.36;50.73
23281;BME280;11809;56.390;-3.266;2023-03-14T02:58:37;99097.69;;;12.37;50.85
23281;BME280;11809;56.390;-3.266;2023-03-14T03:01:04;99105.44;;;12.39;50.73
23281;BME280;11809;56.390;-3.266;2023-03-14T03:03:31;99104.50;;;12.40;50.55
23281;BME280;11809;56.390;-3.266;2023-03-14T03:05:58;99107.16;;;12.40;50.63
23281;BME280;11809;56.390;-3.266;2023-03-14T03:08:26;99107.03;;;12.41;50.59
23281;BME280;11809;56.390;-3.266;2023-03-14T03:10:54;99116.50;;;12.44;50.61
23281;BME280;11809;56.390;-3.266;2023-03-14T03:13:21;99120.91;;;12.43;50.65
23281;BME280;11809;56.390;-3.266;2023-03-14T03:15:48;99125.25;;;12.44;50.64
23281;BME280;11809;56.390;-3.266;2023-03-14T03:18:15;99124.31;;;12.45;50.72
23281;BME280;11809;56.390;-3.266;2023-03-14T03:20:42;99128.50;;;12.48;50.57
23281;BME280;11809;56.390;-3.266;2023-03-14T03:23:09;99121.44;;;12.48;50.70
23281;BME280;11809;56.390;-3.266;2023-03-14T03:25:36;99126.69;;;12.48;50.45
23281;BME280;11809;56.390;-3.266;2023-03-14T03:28:02;99125.75;;;12.49;50.55
23281;BME280;11809;56.390;-3.266;2023-03-14T03:30:40;99139.78;;;12.50;50.37
23281;BME280;11809;56.390;-3.266;2023-03-14T03:33:08;99133.53;;;12.51;50.54
23281;BME280;11809;56.390;-3.266;2023-03-14T03:35:45;99132.59;;;12.52;50.54
23281;BME280;11809;56.390;-3.266;2023-03-14T03:38:13;99129.13;;;12.51;50.18
23281;BME280;11809;56.390;-3.266;2023-03-14T03:40:40;99137.78;;;12.53;50.57
23281;BME280;11809;56.390;-3.266;2023-03-14T03:43:07;99139.44;;;12.54;50.28
23281;BME280;11809;56.390;-3.266;2023-03-14T03:45:35;99141.97;;;12.56;50.61
23281;BME280;11809;56.390;-3.266;2023-03-14T03:48:02;99140.16;;;12.56;50.47
23281;BME280;11809;56.390;-3.266;2023-03-14T03:50:29;99142.91;;;12.55;50.41
23281;BME280;11809;56.390;-3.266;2023-03-14T03:52:55;99146.28;;;12.57;50.37
23281;BME280;11809;56.390;-3.266;2023-03-14T03:55:22;99152.41;;;12.57;50.41
23281;BME280;11809;56.390;-3.266;2023-03-14T03:57:49;99165.44;;;12.59;50.35
23281;BME280;11809;56.390;-3.266;2023-03-14T04:00:16;99155.75;;;12.59;50.40
23281;BME280;11809;56.390;-3.266;2023-03-14T04:02:43;99163.56;;;12.61;50.35
23281;BME280;11809;56.390;-3.266;2023-03-14T04:05:10;99162.59;;;12.62;50.47
23281;BME280;11809;56.390;-3.266;2023-03-14T04:07:37;99165.88;;;12.65;50.32
23281;BME280;11809;56.390;-3.266;2023-03-14T04:10:04;99171.13;;;12.65;50.41
23281;BME280;11809;56.390;-3.266;2023-03-14T04:12:31;99179.78;;;12.67;50.31
23281;BME280;11809;56.390;-3.266;2023-03-14T04:14:58;99179.78;;;12.67;50.33
23281;BME280;11809;56.390;-3.266;2023-03-14T04:17:25;99186.72;;;12.68;50.29
23281;BME280;11809;56.390;-3.266;2023-03-14T04:19:52;99180.63;;;12.68;50.41
23281;BME280;11809;56.390;-3.266;2023-03-14T04:22:20;99178.69;;;12.70;50.20
23281;BME280;11809;56.390;-3.266;2023-03-14T04:24:47;99186.53;;;12.71;50.45
23281;BME280;11809;56.390;-3.266;2023-03-14T04:27:14;99192.63;;;12.72;50.36
23281;BME280;11809;56.390;-3.266;2023-03-14T04:29:42;99193.47;;;12.72;50.33
23281;BME280;11809;56.390;-3.266;2023-03-14T04:32:09;99193.47;;;12.72;50.18
23281;BME280;11809;56.390;-3.266;2023-03-14T04:34:37;99197.91;;;12.72;50.27
23281;BME280;11809;56.390;-3.266;2023-03-14T04:37:04;99193.38;;;12.74;50.19
23281;BME280;11809;56.390;-3.266;2023-03-14T04:39:30;99191.56;;;12.74;50.32
23281;BME280;11809;56.390;-3.266;2023-03-14T04:41:57;99198.41;;;12.77;50.33
23281;BME280;11809;56.390;-3.266;2023-03-14T04:44:24;99203.56;;;12.78;50.19
23281;BME280;11809;56.390;-3.266;2023-03-14T04:46:51;99208.84;;;12.78;50.32
23281;BME280;11809;56.390;-3.266;2023-03-14T04:49:18;99213.16;;;12.80;50.39
23281;BME280;11809;56.390;-3.266;2023-03-14T04:51:45;99222.88;;;12.79;50.20
23281;BME280;11809;56.390;-3.266;2023-03-14T04:54:12;99217.47;;;12.81;50.00
23281;BME280;11809;56.390;-3.266;2023-03-14T04:56:39;99221.81;;;12.82;50.19
23281;BME280;11809;56.390;-3.266;2023-03-14T04:59:06;99216.53;;;12.82;50.08
23281;BME280;11809;56.390;-3.266;2023-03-14T05:01:32;99213.91;;;12.82;50.14
23281;BME280;11809;56.390;-3.266;2023-03-14T05:03:59;99217.25;;;12.84;50.07
23281;BME280;11809;56.390;-3.266;2023-03-14T05:06:26;99219.81;;;12.85;50.31
23281;BME280;11809;56.390;-3.266;2023-03-14T05:08:53;99224.09;;;12.86;50.16
23281;BME280;11809;56.390;-3.266;2023-03-14T05:11:20;99225.66;;;12.89;50.25
23281;BME280;11809;56.390;-3.266;2023-03-14T05:13:47;99231.69;;;12.91;50.19
23281;BME280;11809;56.390;-3.266;2023-03-14T05:16:14;99240.56;;;12.90;50.11
23281;BME280;11809;56.390;-3.266;2023-03-14T05:18:41;99236.00;;;12.92;50.13
23281;BME280;11809;56.390;-3.266;2023-03-14T05:21:08;99232.44;;;12.93;50.21
23281;BME280;11809;56.390;-3.266;2023-03-14T05:23:34;99235.78;;;12.95;50.20
23281;BME280;11809;56.390;-3.266;2023-03-14T05:26:01;99248.84;;;12.96;50.41
23281;BME280;11809;56.390;-3.266;2023-03-14T05:28:28;99254.97;;;12.97;50.29
23281;BME280;11809;56.390;-3.266;2023-03-14T05:30:55;99247.78;;;12.99;50.36
23281;BME280;11809;56.390;-3.266;2023-03-14T05:33:22;99245.16;;;12.99;50.20
23281;BME280;11809;56.390;-3.266;2023-03-14T05:35:49;99245.06;;;13.00;50.01
23281;BME280;11809;56.390;-3.266;2023-03-14T05:38:16;99241.47;;;13.01;50.23
23281;BME280;11809;56.390;-3.266;2023-03-14T05:40:44;99248.53;;;13.01;50.14
23281;BME280;11809;56.390;-3.266;2023-03-14T05:43:11;99242.06;;;13.05;50.24
23281;BME280;11809;56.390;-3.266;2023-03-14T05:45:38;99242.75;;;13.08;50.42
23281;BME280;11809;56.390;-3.266;2023-03-14T05:48:05;99245.47;;;13.07;50.06
23281;BME280;11809;56.390;-3.266;2023-03-14T05:50:32;99250.09;;;13.03;49.98
23281;BME280;11809;56.390;-3.266;2023-03-14T05:52:59;99231.34;;;13.08;50.25
23281;BME280;11809;56.390;-3.266;2023-03-14T05:55:26;99235.97;;;13.17;50.08
23281;BME280;11809;56.390;-3.266;2023-03-14T05:57:53;99247.84;;;13.22;49.98
23281;BME280;11809;56.390;-3.266;2023-03-14T06:00:22;99257.34;;;13.25;49.93
23281;BME280;11809;56.390;-3.266;2023-03-14T06:02:49;99257.84;;;13.30;50.02
23281;BME280;11809;56.390;-3.266;2023-03-14T06:05:16;99265.53;;;13.33;49.92
23281;BME280;11809;56.390;-3.266;2023-03-14T06:07:43;99266.25;;;13.35;50.06
23281;BME280;11809;56.390;-3.266;2023-03-14T06:10:10;99274.81;;;13.39;49.95
23281;BME280;11809;56.390;-3.266;2023-03-14T06:12:38;99273.75;;;13.41;50.16
23281;BME280;11809;56.390;-3.266;2023-03-14T06:15:05;99284.88;;;13.45;50.66
23281;BME280;11809;56.390;-3.266;2023-03-14T06:17:32;99292.72;;;13.46;50.57
23281;BME280;11809;56.390;-3.266;2023-03-14T06:19:59;99297.66;;;13.51;50.62
23281;BME280;11809;56.390;-3.266;2023-03-14T06:22:26;99298.28;;;13.54;50.50
23281;BME280;11809;56.390;-3.266;2023-03-14T06:24:52;99299.72;;;13.58;50.32
23281;BME280;11809;56.390;-3.266;2023-03-14T06:27:19;99307.34;;;13.50;48.89
23281;BME280;11809;56.390;-3.266;2023-03-14T06:29:46;99307.84;;;13.55;49.55
23281;BME280;11809;56.390;-3.266;2023-03-14T06:32:13;99301.41;;;13.59;49.84
23281;BME280;11809;56.390;-3.266;2023-03-14T06:34:40;99318.38;;;13.68;50.13
23281;BME280;11809;56.390;-3.266;2023-03-14T06:37:07;99318.69;;;13.63;48.92
23281;BME280;11809;56.390;-3.266;2023-03-14T06:39:34;99319.41;;;13.65;48.59
23281;BME280;11809;56.390;-3.266;2023-03-14T06:42:01;99327.75;;;13.72;49.54
23281;BME280;11809;56.390;-3.266;2023-03-14T06:44:28;99326.66;;;13.74;49.91
23281;BME280;11809;56.390;-3.266;2023-03-14T06:46:55;99326.31;;;13.79;49.73
23281;BME280;11809;56.390;-3.266;2023-03-14T06:49:22;99328.16;;;13.78;49.65
23281;BME280;11809;56.390;-3.266;2023-03-14T06:51:49;99330.78;;;13.78;49.80
23281;BME280;11809;56.390;-3.266;2023-03-14T06:54:15;99328.38;;;13.75;49.65
23281;BME280;11809;56.390;-3.266;2023-03-14T06:56:42;99334.44;;;13.65;49.54
23281;BME280;11809;56.390;-3.266;2023-03-14T06:59:09;99345.53;;;13.57;49.63
23281;BME280;11809;56.390;-3.266;2023-03-14T07:01:36;99347.66;;;13.52;49.85
23281;BME280;11809;56.390;-3.266;2023-03-14T07:04:03;99348.63;;;13.51;49.56
23281;BME280;11809;56.390;-3.266;2023-03-14T07:06:30;99354.97;;;13.49;49.64
23281;BME280;11809;56.390;-3.266;2023-03-14T07:08:57;99357.84;;;13.46;49.69
23281;BME280;11809;56.390;-3.266;2023-03-14T07:11:26;99376.19;;;13.47;49.57
23281;BME280;11809;56.390;-3.266;2023-03-14T07:13:53;99367.34;;;13.48;49.81
23281;BME280;11809;56.390;-3.266;2023-03-14T07:16:20;99366.47;;;13.48;49.79
23281;BME280;11809;56.390;-3.266;2023-03-14T07:18:47;99374.75;;;13.67;50.13
23281;BME280;11809;56.390;-3.266;2023-03-14T07:21:15;99369.84;;;13.50;46.56
23281;BME280;11809;56.390;-3.266;2023-03-14T07:23:42;99392.03;;;13.47;47.30
23281;BME280;11809;56.390;-3.266;2023-03-14T07:26:09;99387.63;;;13.35;48.26
23281;BME280;11809;56.390;-3.266;2023-03-14T07:28:36;99398.84;;;13.26;48.75
23281;BME280;11809;56.390;-3.266;2023-03-14T07:31:03;99407.94;;;13.22;49.17
23281;BME280;11809;56.390;-3.266;2023-03-14T07:33:31;99415.41;;;13.15;49.54
23281;BME280;11809;56.390;-3.266;2023-03-14T07:35:58;99423.53;;;13.12;49.60
23281;BME280;11809;56.390;-3.266;2023-03-14T07:38:25;99427.34;;;13.08;49.79
23281;BME280;11809;56.390;-3.266;2023-03-14T07:41:04;99431.97;;;13.05;49.81
23281;BME280;11809;56.390;-3.266;2023-03-14T07:43:32;99431.22;;;13.03;49.83
23281;BME280;11809;56.390;-3.266;2023-03-14T07:45:59;99437.66;;;12.99;49.98
23281;BME280;11809;56.390;-3.266;2023-03-14T07:48:26;99444.63;;;13.00;49.86
23281;BME280;11809;56.390;-3.266;2023-03-14T07:50:55;99448.56;;;13.19;50.09
23281;BME280;11809;56.390;-3.266;2023-03-14T07:53:22;99436.63;;;13.26;49.38
23281;BME280;11809;56.390;-3.266;2023-03-14T07:55:54;99440.84;;;13.29;49.42
23281;BME280;11809;56.390;-3.266;2023-03-14T07:58:21;99441.13;;;13.37;49.84
23281;BME280;11809;56.390;-3.266;2023-03-14T08:00:49;99438.06;;;13.43;50.01
23281;BME280;11809;56.390;-3.266;2023-03-14T08:03:17;99448.28;;;13.48;49.85
23281;BME280;11809;56.390;-3.266;2023-03-14T08:05:47;99462.72;;;13.55;50.15
23281;BME280;11809;56.390;-3.266;2023-03-14T08:08:15;99458.81;;;13.60;49.92
23281;BME280;11809;56.390;-3.266;2023-03-14T08:10:42;99462.22;;;13.62;49.47
23281;BME280;11809;56.390;-3.266;2023-03-14T08:13:10;99464.41;;;13.68;49.81
23281;BME280;11809;56.390;-3.266;2023-03-14T08:15:37;99465.75;;;13.74;49.84
23281;BME280;11809;56.390;-3.266;2023-03-14T08:18:04;99476.22;;;13.75;49.99
23281;BME280;11809;56.390;-3.266;2023-03-14T08:20:32;99475.53;;;13.84;49.96
23281;BME280;11809;56.390;-3.266;2023-03-14T08:23:00;99478.59;;;13.91;49.47
23281;BME280;11809;56.390;-3.266;2023-03-14T08:25:28;99483.31;;;13.98;49.35
23281;BME280;11809;56.390;-3.266;2023-03-14T08:27:55;99491.75;;;14.04;49.00
23281;BME280;11809;56.390;-3.266;2023-03-14T08:30:23;99493.25;;;14.08;49.24
23281;BME280;11809;56.390;-3.266;2023-03-14T08:32:51;99482.19;;;14.14;49.66
23281;BME280;11809;56.390;-3.266;2023-03-14T08:35:19;99482.97;;;14.16;49.24
23281;BME280;11809;56.390;-3.266;2023-03-14T08:37:46;99493.91;;;14.22;49.80
23281;BME280;11809;56.390;-3.266;2023-03-14T08:40:13;99494.41;;;14.27;49.59
23281;BME280;11809;56.390;-3.266;2023-03-14T08:42:41;99505.59;;;14.31;49.69
23281;BME280;11809;56.390;-3.266;2023-03-14T08:45:13;99504.34;;;14.36;49.73
23281;BME280;11809;56.390;-3.266;2023-03-14T08:47:40;99513.63;;;14.42;49.29
23281;BME280;11809;56.390;-3.266;2023-03-14T08:50:09;99504.00;;;14.41;49.51
23281;BME280;11809;56.390;-3.266;2023-03-14T08:52:41;99513.63;;;14.42;48.93
23281;BME280;11809;56.390;-3.266;2023-03-14T08:55:09;99511.19;;;14.39;49.04
23281;BME280;11809;56.390;-3.266;2023-03-14T08:57:36;99521.78;;;14.39;48.93
23281;BME280;11809;56.390;-3.266;2023-03-14T09:00:04;99517.22;;;14.41;48.70
23281;BME280;11809;56.390;-3.266;2023-03-14T09:02:36;99520.56;;;14.43;48.43
23281;BME280;11809;56.390;-3.266;2023-03-14T09:05:04;99521.84;;;14.50;48.92
23281;BME280;11809;56.390;-3.266;2023-03-14T09:07:31;99520.53;;;14.55;48.74
23281;BME280;11809;56.390;-3.266;2023-03-14T09:09:58;99518.50;;;14.59;48.73
23281;BME280;11809;56.390;-3.266;2023-03-14T09:12:26;99524.50;;;14.61;48.76
23281;BME280;11809;56.390;-3.266;2023-03-14T09:14:53;99524.84;;;14.56;48.45
23281;BME280;11809;56.390;-3.266;2023-03-14T09:17:20;99522.56;;;14.52;48.71
23281;BME280;11809;56.390;-3.266;2023-03-14T09:19:47;99524.22;;;14.53;48.73
23281;BME280;11809;56.390;-3.266;2023-03-14T09:22:14;99536.28;;;14.57;48.92
23281;BME280;11809;56.390;-3.266;2023-03-14T09:24:41;99546.63;;;14.60;48.83
23281;BME280;11809;56.390;-3.266;2023-03-14T09:27:08;99556.00;;;14.64;49.07
23281;BME280;11809;56.390;-3.266;2023-03-14T09:29:36;99561.06;;;14.67;49.38
23281;BME280;11809;56.390;-3.266;2023-03-14T09:32:03;99561.91;;;14.68;49.10
23281;BME280;11809;56.390;-3.266;2023-03-14T09:34:30;99556.50;;;14.69;49.14
23281;BME280;11809;56.390;-3.266;2023-03-14T09:36:57;99565.19;;;14.71;49.36
23281;BME280;11809;56.390;-3.266;2023-03-14T09:39:25;99577.78;;;14.68;49.04
23281;BME280;11809;56.390;-3.266;2023-03-14T09:41:54;99588.50;;;14.66;49.13
23281;BME280;11809;56.390;-3.266;2023-03-14T09:44:32;99600.50;;;14.70;49.52
23281;BME280;11809;56.390;-3.266;2023-03-14T09:47:05;99598.72;;;14.71;48.88
23281;BME280;11809;56.390;-3.266;2023-03-14T09:49:34;99603.59;;;14.64;48.64
23281;BME280;11809;56.390;-3.266;2023-03-14T09:52:15;99598.66;;;14.60;48.20
23281;BME280;11809;56.390;-3.266;2023-03-14T09:54:47;99604.06;;;14.58;48.02
23281;BME280;11809;56.390;-3.266;2023-03-14T09:57:18;99600.22;;;14.62;48.75
23281;BME280;11809;56.390;-3.266;2023-03-14T09:59:48;99598.31;;;14.64;49.21
23281;BME280;11809;56.390;-3.266;2023-03-14T10:02:24;99608.06;;;14.64;48.85
23281;BME280;11809;56.390;-3.266;2023-03-14T10:04:53;99613.00;;;14.68;49.00
23281;BME280;11809;56.390;-3.266;2023-03-14T10:07:31;99617.31;;;14.69;49.13
23281;BME280;11809;56.390;-3.266;2023-03-14T10:09:59;99637.66;;;14.69;49.15
23281;BME280;11809;56.390;-3.266;2023-03-14T10:12:34;99642.84;;;14.70;49.52
23281;BME280;11809;56.390;-3.266;2023-03-14T10:15:08;99655.09;;;14.71;49.11
23281;BME280;11809;56.390;-3.266;2023-03-14T10:17:58;99658.56;;;14.72;48.73
23281;BME280;11809;56.390;-3.266;2023-03-14T10:23:04;99639.53;;;14.79;49.22
23281;BME280;11809;56.390;-3.266;2023-03-14T10:25:34;99653.69;;;14.78;49.12
23281;BME280;11809;56.390;-3.266;2023-03-14T10:28:04;99664.06;;;14.81;49.31
23281;BME280;11809;56.390;-3.266;2023-03-14T10:30:39;99670.06;;;14.83;49.52
23281;BME280;11809;56.390;-3.266;2023-03-14T10:33:21;99667.66;;;14.80;49.29
23281;BME280;11809;56.390;-3.266;2023-03-14T10:35:57;99684.38;;;14.81;49.42
23281;BME280;11809;56.390;-3.266;2023-03-14T10:38:27;99688.81;;;14.80;49.46
23281;BME280;11809;56.390;-3.266;2023-03-14T10:40:55;99689.03;;;14.77;49.17
23281;BME280;11809;56.390;-3.266;2023-03-14T10:43:33;99684.94;;;14.73;49.19
23281;BME280;11809;56.390;-3.266;2023-03-14T10:46:08;99692.13;;;14.71;49.44
23281;BME280;11809;56.390;-3.266;2023-03-14T10:48:38;99710.53;;;14.73;48.96
23281;BME280;11809;56.390;-3.266;2023-03-14T10:51:20;99721.94;;;14.73;49.40
23281;BME280;11809;56.390;-3.266;2023-03-14T10:56:25;99712.22;;;14.74;49.32
23281;BME280;11809;56.390;-3.266;2023-03-14T10:58:57;99712.31;;;14.72;46.78
23281;BME280;11809;56.390;-3.266;2023-03-14T11:01:35;99721.69;;;14.52;44.38
23281;BME280;11809;56.390;-3.266;2023-03-14T11:12:33;99764.44;;;14.34;45.49
23281;BME280;11809;56.390;-3.266;2023-03-14T11:15:31;99771.81;;;14.41;46.14
23281;BME280;11809;56.390;-3.266;2023-03-14T11:20:50;99785.78;;;14.43;46.87
23281;BME280;11809;56.390;-3.266;2023-03-14T11:23:27;99798.34;;;14.40;47.10
23281;BME280;11809;56.390;-3.266;2023-03-14T11:28:58;99796.88;;;14.36;47.73
23281;BME280;11809;56.390;-3.266;2023-03-14T11:31:31;99804.59;;;14.39;48.05
23281;BME280;11809;56.390;-3.266;2023-03-14T11:34:10;99803.63;;;14.40;48.09
23281;BME280;11809;56.390;-3.266;2023-03-14T11:36:51;99809.88;;;14.39;48.38
23281;BME280;11809;56.390;-3.266;2023-03-14T11:39:20;99810.63;;;14.41;48.76
23281;BME280;11809;56.390;-3.266;2023-03-14T11:41:51;99813.25;;;14.41;48.55
23281;BME280;11809;56.390;-3.266;2023-03-14T11:44:20;99817.63;;;14.42;48.59
23281;BME280;11809;56.390;-3.266;2023-03-14T11:49:34;99828.19;;;14.42;48.27
23281;BME280;11809;56.390;-3.266;2023-03-14T11:52:11;99820.25;;;14.42;49.24
23281;BME280;11809;56.390;-3.266;2023-03-14T11:54:48;99831.66;;;14.42;48.53
23281;BME280;11809;56.390;-3.266;2023-03-14T11:57:19;99831.03;;;14.39;49.18
23281;BME280;11809;56.390;-3.266;2023-03-14T11:59:50;99836.53;;;14.36;49.07
23281;BME280;11809;56.390;-3.266;2023-03-14T12:10:44;99851.22;;;14.40;49.18
23281;BME280;11809;56.390;-3.266;2023-03-14T12:13:14;99859.16;;;14.40;49.07
23281;BME280;11809;56.390;-3.266;2023-03-14T12:15:57;99868.03;;;14.39;49.03
23281;BME280;11809;56.390;-3.266;2023-03-14T12:18:38;99876.72;;;14.41;50.08
23281;BME280;11809;56.390;-3.266;2023-03-14T12:21:07;99885.56;;;14.40;49.75
23281;BME280;11809;56.390;-3.266;2023-03-14T12:23:42;99888.22;;;14.40;50.06
23281;BME280;11809;56.390;-3.266;2023-03-14T12:28:44;99892.44;;;14.42;49.86
23281;BME280;11809;56.390;-3.266;2023-03-14T12:39:17;99899.97;;;14.36;50.13
23281;BME280;11809;56.390;-3.266;2023-03-14T12:44:50;99896.38;;;14.37;50.00
23281;BME280;11809;56.390;-3.266;2023-03-14T12:49:46;99909.16;;;14.04;45.65
23281;BME280;11809;56.390;-3.266;2023-03-14T12:52:17;99912.06;;;13.86;45.41
23281;BME280;11809;56.390;-3.266;2023-03-14T12:54:54;99918.84;;;13.90;46.09
23281;BME280;11809;56.390;-3.266;2023-03-14T13:00:20;99934.53;;;14.06;47.45
23281;BME280;11809;56.390;-3.266;2023-03-14T13:02:49;99943.09;;;14.10;47.51
23281;BME280;11809;56.390;-3.266;2023-03-14T13:05:24;99952.72;;;14.11;47.21
23281;BME280;11809;56.390;-3.266;2023-03-14T13:10:26;99960.44;;;14.14;47.38
23281;BME280;11809;56.390;-3.266;2023-03-14T13:12:57;99959.50;;;14.15;47.27
23281;BME280;11809;56.390;-3.266;2023-03-14T13:15:38;99965.66;;;14.15;47.25
23281;BME280;11809;56.390;-3.266;2023-03-14T13:18:28;99969.88;;;14.18;47.57
23281;BME280;11809;56.390;-3.266;2023-03-14T13:23:37;99990.28;;;14.16;47.49
23281;BME280;11809;56.390;-3.266;2023-03-14T13:26:11;99998.25;;;14.02;45.35
23281;BME280;11809;56.390;-3.266;2023-03-14T13:28:39;99994.28;;;13.94;45.14
23281;BME280;11809;56.390;-3.266;2023-03-14T13:31:20;100003.91;;;13.95;45.76
23281;BME280;11809;56.390;-3.266;2023-03-14T13:34:00;100000.41;;;13.95;45.96
23281;BME280;11809;56.390;-3.266;2023-03-14T13:36:28;100011.84;;;13.95;46.38
23281;BME280;11809;56.390;-3.266;2023-03-14T13:38:57;100005.63;;;13.96;46.54
23281;BME280;11809;56.390;-3.266;2023-03-14T13:41:25;100013.34;;;14.00;46.78
23281;BME280;11809;56.390;-3.266;2023-03-14T13:43:58;100014.19;;;14.00;46.70
23281;BME280;11809;56.390;-3.266;2023-03-14T13:46:27;100015.03;;;14.01;46.65
23281;BME280;11809;56.390;-3.266;2023-03-14T13:48:56;100015.03;;;14.01;47.05
23281;BME280;11809;56.390;-3.266;2023-03-14T13:51:25;100021.28;;;13.85;46.73
23281;BME280;11809;56.390;-3.266;2023-03-14T13:53:55;100029.59;;;13.79;46.92
23281;BME280;11809;56.390;-3.266;2023-03-14T13:56:31;100027.63;;;13.83;47.51
23281;BME280;11809;56.390;-3.266;2023-03-14T13:58:59;100030.25;;;13.97;47.04
23281;BME280;11809;56.390;-3.266;2023-03-14T14:01:30;100036.72;;;14.06;46.88
23281;BME280;11809;56.390;-3.266;2023-03-14T14:04:06;100044.13;;;14.13;47.03